Time;durP1;ratioP1;P1;durP2;ratioP2;P2;SDS_P1;SDS_P2;PMS_P1;PMS_P2;Temp;Humidity;BMP_temperature;BMP_pressure;BME280_temperature;BME280_humidity;BME280_pressure;Samples;Min_cycle;Max_cycle;Signal;HPM_P1;HPM_P2
2023/11/23 00:00:13;;;;;;;7.82;3.30;;;13.00;97.60;;;;;;5053867;28;20428;-46
2023/11/23 00:02:39;;;;;;;6.65;3.05;;;13.00;97.60;;;;;;5053121;28;20037;-45
2023/11/23 00:05:07;;;;;;;5.20;2.97;;;13.00;97.60;;;;;;5052109;28;20032;-45
2023/11/23 00:07:32;;;;;;;4.70;2.97;;;13.00;97.60;;;;;;5052111;28;20020;-45
2023/11/23 00:09:58;;;;;;;5.45;3.30;;;13.00;97.60;;;;;;5052950;28;20471;-45
2023/11/23 00:12:24;;;;;;;5.05;2.90;;;13.00;97.60;;;;;;5053501;28;20078;-45
2023/11/23 00:14:51;;;;;;;5.25;2.75;;;13.00;97.60;;;;;;5052512;28;20417;-45
2023/11/23 00:17:17;;;;;;;4.63;2.97;;;13.00;97.60;;;;;;5052704;28;20032;-45
2023/11/23 00:19:43;;;;;;;4.60;3.17;;;13.00;97.60;;;;;;5053273;28;20025;-45
2023/11/23 00:22:09;;;;;;;4.47;2.65;;;13.00;97.60;;;;;;5053582;28;20387;-45
2023/11/23 00:24:34;;;;;;;5.43;3.10;;;13.00;97.60;;;;;;5051734;28;20028;-45
2023/11/23 00:27:00;;;;;;;4.95;2.83;;;13.00;97.60;;;;;;5052298;28;20616;-45
2023/11/23 00:29:26;;;;;;;6.07;3.10;;;13.00;97.60;;;;;;5052910;28;20021;-43
2023/11/23 00:31:52;;;;;;;4.90;2.88;;;13.00;97.60;;;;;;5052263;28;20531;-45
2023/11/23 00:34:17;;;;;;;4.60;2.80;;;13.00;97.60;;;;;;5051698;28;20068;-46
2023/11/23 00:36:43;;;;;;;5.45;3.13;;;13.00;97.60;;;;;;5052497;28;20021;-43
2023/11/23 00:39:09;;;;;;;4.38;2.75;;;12.90;97.50;;;;;;5051512;28;20390;-45
2023/11/23 00:41:38;;;;;;;3.97;2.72;;;13.00;97.60;;;;;;5053186;28;20067;-45
2023/11/23 00:44:05;;;;;;;6.70;2.80;;;13.00;97.60;;;;;;5052553;28;20029;-45
2023/11/23 00:46:31;;;;;;;5.25;3.03;;;12.90;97.60;;;;;;5051418;28;20027;-45
2023/11/23 00:48:59;;;;;;;4.28;2.70;;;12.90;97.60;;;;;;5051945;28;20066;-45
2023/11/23 00:51:26;;;;;;;3.38;2.45;;;12.90;97.90;;;;;;5051698;28;20021;-45
2023/11/23 00:53:52;;;;;;;4.13;2.72;;;12.90;97.60;;;;;;5051434;28;20059;-44
2023/11/23 00:56:17;;;;;;;4.07;2.55;;;12.90;97.60;;;;;;5051951;28;20021;-45
2023/11/23 00:58:44;;;;;;;4.78;2.63;;;12.90;97.60;;;;;;5051107;28;20509;-45
2023/11/23 01:01:14;;;;;;;4.10;2.67;;;12.90;97.60;;;;;;5052883;28;20536;-46
2023/11/23 01:03:40;;;;;;;3.70;2.50;;;12.90;97.60;;;;;;5051221;28;20075;-45
2023/11/23 01:06:06;;;;;;;3.80;2.75;;;12.90;97.60;;;;;;5051225;28;20025;-46
2023/11/23 01:08:31;;;;;;;4.57;2.70;;;12.90;97.60;;;;;;5052215;28;20029;-45
2023/11/23 01:10:59;;;;;;;3.65;2.78;;;12.90;97.60;;;;;;5052923;28;20060;-46
2023/11/23 01:13:25;;;;;;;4.03;2.70;;;12.90;97.60;;;;;;5051782;28;20029;-42
2023/11/23 01:15:51;;;;;;;4.13;2.60;;;12.90;97.60;;;;;;5052631;28;20025;-45
2023/11/23 01:18:17;;;;;;;4.03;2.60;;;12.90;97.60;;;;;;5051490;28;20561;-44
2023/11/23 01:20:43;;;;;;;3.10;2.33;;;12.90;97.90;;;;;;5052591;28;20043;-45
2023/11/23 01:23:09;;;;;;;3.95;2.40;;;12.90;97.60;;;;;;5051410;28;20032;-44
2023/11/23 01:25:35;;;;;;;4.93;2.40;;;12.90;97.60;;;;;;5051770;28;20394;-45
2023/11/23 01:28:01;;;;;;;6.97;2.67;;;12.90;97.60;;;;;;5052185;28;20064;-45
2023/11/23 01:30:26;;;;;;;3.95;2.35;;;12.90;97.70;;;;;;5052246;28;20040;-45
2023/11/23 01:32:52;;;;;;;3.97;2.72;;;12.90;97.80;;;;;;5050768;28;20504;-46
2023/11/23 01:35:20;;;;;;;3.85;2.53;;;13.00;97.80;;;;;;5051736;28;20130;-45
2023/11/23 01:37:46;;;;;;;3.78;2.50;;;13.00;97.70;;;;;;5051829;28;20017;-45
2023/11/23 01:40:13;;;;;;;3.70;2.38;;;13.00;97.70;;;;;;5052116;28;20049;-45
2023/11/23 01:42:39;;;;;;;3.55;2.35;;;13.10;97.70;;;;;;5052162;28;20083;-44
2023/11/23 01:45:06;;;;;;;4.30;2.80;;;13.10;97.60;;;;;;5052091;28;20017;-46
2023/11/23 01:47:35;;;;;;;3.35;2.45;;;13.20;97.50;;;;;;5051527;28;20021;-45
2023/11/23 01:50:03;;;;;;;3.70;2.85;;;13.30;97.40;;;;;;5050455;28;20052;-45
2023/11/23 01:52:29;;;;;;;3.28;2.58;;;13.30;97.30;;;;;;5051197;28;20032;-45
2023/11/23 01:54:57;;;;;;;3.42;2.50;;;13.40;97.30;;;;;;5050445;28;20106;-45
2023/11/23 01:57:25;;;;;;;2.95;2.40;;;13.30;97.20;;;;;;5053328;28;20017;-44
2023/11/23 01:59:50;;;;;;;4.30;2.78;;;13.40;97.10;;;;;;5054263;28;20025;-41
2023/11/23 02:02:16;;;;;;;3.58;2.55;;;13.40;97.10;;;;;;5054622;28;20037;-43
2023/11/23 02:04:42;;;;;;;4.30;2.45;;;13.40;97.00;;;;;;5055706;28;20029;-43
2023/11/23 02:07:08;;;;;;;3.95;2.72;;;13.50;97.10;;;;;;5054625;28;20067;-43
2023/11/23 02:09:34;;;;;;;3.30;2.33;;;13.40;96.90;;;;;;5054051;28;20082;-46
2023/11/23 02:12:06;;;;;;;3.85;2.70;;;13.40;96.90;;;;;;5056042;28;20474;-41
2023/11/23 02:14:33;;;;;;;3.33;2.33;;;13.50;97.00;;;;;;5055027;28;20021;-45
2023/11/23 02:16:59;;;;;;;4.55;2.72;;;13.50;96.90;;;;;;5055395;28;20036;-45
2023/11/23 02:19:25;;;;;;;3.20;2.40;;;13.50;96.90;;;;;;5055186;28;20026;-44
2023/11/23 02:21:50;;;;;;;4.18;2.50;;;13.40;96.90;;;;;;5054988;28;20029;-40
2023/11/23 02:24:16;;;;;;;3.20;2.70;;;13.40;96.90;;;;;;5055193;28;20079;-45
2023/11/23 02:26:41;;;;;;;3.25;2.72;;;13.40;96.90;;;;;;5053926;28;20025;-45
2023/11/23 02:29:07;;;;;;;3.65;2.60;;;13.40;96.90;;;;;;5053623;28;20021;-45
2023/11/23 02:31:33;;;;;;;4.05;2.75;;;13.40;96.90;;;;;;5054753;28;20063;-46
2023/11/23 02:34:00;;;;;;;3.50;2.60;;;13.40;96.90;;;;;;5053889;28;20028;-45
2023/11/23 02:36:26;;;;;;;4.15;2.75;;;13.40;96.90;;;;;;5053510;28;20025;-45
2023/11/23 02:38:52;;;;;;;2.97;2.33;;;13.40;96.80;;;;;;5053954;28;20078;-45
2023/11/23 02:41:17;;;;;;;3.13;2.25;;;13.40;96.90;;;;;;5054477;28;20032;-45
2023/11/23 02:43:43;;;;;;;3.00;2.38;;;13.40;96.90;;;;;;5054477;28;20032;-45
2023/11/23 02:46:09;;;;;;;2.95;2.42;;;13.40;96.90;;;;;;5055804;28;20032;-45
2023/11/23 02:48:35;;;;;;;3.92;2.63;;;13.40;96.90;;;;;;5053851;28;20029;-45
2023/11/23 02:51:01;;;;;;;3.70;2.80;;;13.30;96.80;;;;;;5053671;28;20475;-45
2023/11/23 02:53:42;;;;;;;4.10;2.65;;;13.40;96.90;;;;;;5053518;28;20143;-45
2023/11/23 02:56:08;;;;;;;4.53;2.50;;;13.30;96.80;;;;;;5054599;28;20029;-41
2023/11/23 02:58:34;;;;;;;4.20;2.47;;;13.30;96.80;;;;;;5054192;28;20017;-45
2023/11/23 03:00:59;;;;;;;5.28;2.53;;;13.30;96.80;;;;;;5054254;28;20032;-44
2023/11/23 03:03:25;;;;;;;3.65;2.45;;;13.30;96.80;;;;;;5054733;28;20021;-43
2023/11/23 03:05:51;;;;;;;3.65;2.55;;;13.30;96.80;;;;;;5054488;28;20029;-45
2023/11/23 03:08:16;;;;;;;3.75;2.63;;;13.30;96.80;;;;;;5054560;28;20124;-43
2023/11/23 03:10:42;;;;;;;4.53;2.60;;;13.30;96.90;;;;;;5053561;28;20049;-42
2023/11/23 03:13:08;;;;;;;3.50;2.45;;;13.20;96.80;;;;;;5054960;28;20056;-45
2023/11/23 03:15:33;;;;;;;4.20;2.70;;;13.20;96.80;;;;;;5052993;28;20419;-45
2023/11/23 03:17:59;;;;;;;3.75;2.70;;;13.20;96.80;;;;;;5053211;28;20039;-45
2023/11/23 03:20:25;;;;;;;3.63;2.72;;;13.20;96.90;;;;;;5053033;28;20463;-45
2023/11/23 03:22:50;;;;;;;3.03;2.47;;;13.20;96.90;;;;;;5053139;28;20495;-45
2023/11/23 03:25:16;;;;;;;3.03;2.30;;;13.20;96.90;;;;;;5053488;28;20031;-45
2023/11/23 03:27:41;;;;;;;4.93;2.83;;;13.20;96.90;;;;;;5054094;28;20021;-45
2023/11/23 03:30:07;;;;;;;3.88;2.47;;;13.20;96.90;;;;;;5054013;28;20021;-45
2023/11/23 03:32:33;;;;;;;2.92;2.20;;;13.20;96.90;;;;;;5053779;28;20050;-45
2023/11/23 03:35:03;;;;;;;3.45;2.75;;;13.20;96.90;;;;;;5052796;28;20463;-45
2023/11/23 03:37:28;;;;;;;3.67;2.53;;;13.10;96.90;;;;;;5052699;28;20414;-42
2023/11/23 03:39:57;;;;;;;2.78;2.45;;;13.10;96.90;;;;;;5054433;28;20035;-45
2023/11/23 03:42:23;;;;;;;3.67;2.63;;;13.10;96.90;;;;;;5052560;28;20036;-45
2023/11/23 03:44:49;;;;;;;3.15;2.50;;;13.10;96.90;;;;;;5053674;28;20387;-43
2023/11/23 03:47:14;;;;;;;3.80;2.63;;;13.10;96.90;;;;;;5054091;28;20406;-46
2023/11/23 03:49:40;;;;;;;3.47;2.65;;;13.10;96.90;;;;;;5054018;28;20202;-46
2023/11/23 03:52:05;;;;;;;3.42;2.60;;;13.10;97.00;;;;;;5053417;28;20043;-46
2023/11/23 03:54:31;;;;;;;3.55;2.60;;;13.00;96.90;;;;;;5052937;28;20546;-45
2023/11/23 03:56:58;;;;;;;3.10;2.80;;;13.10;97.00;;;;;;5052746;28;20027;-44
2023/11/23 03:59:24;;;;;;;2.90;2.45;;;13.10;97.00;;;;;;5052112;28;20474;-46
2023/11/23 04:01:50;;;;;;;4.30;2.45;;;13.00;97.00;;;;;;5053844;28;20391;-45
2023/11/23 04:04:15;;;;;;;3.13;2.60;;;13.00;97.00;;;;;;5052184;28;20032;-45
2023/11/23 04:06:41;;;;;;;3.22;2.63;;;13.00;97.00;;;;;;5052074;28;20040;-45
2023/11/23 04:09:10;;;;;;;3.05;2.47;;;13.00;97.00;;;;;;5052325;28;20108;-44
2023/11/23 04:11:36;;;;;;;3.05;2.60;;;13.00;97.00;;;;;;5053052;28;20025;-45
2023/11/23 04:14:02;;;;;;;3.40;2.65;;;13.00;97.00;;;;;;5052217;28;20086;-45
2023/11/23 04:16:27;;;;;;;3.70;2.72;;;13.00;97.00;;;;;;5052561;28;20104;-45
2023/11/23 04:18:53;;;;;;;2.72;2.47;;;13.00;97.00;;;;;;5052443;28;20016;-45
2023/11/23 04:21:18;;;;;;;4.25;2.65;;;13.00;97.00;;;;;;5052551;28;20044;-46
2023/11/23 04:23:44;;;;;;;2.83;2.50;;;12.90;97.00;;;;;;5053351;28;20025;-45
2023/11/23 04:26:10;;;;;;;3.63;2.85;;;12.90;97.00;;;;;;5052364;28;20497;-43
2023/11/23 04:28:37;;;;;;;3.80;2.25;;;12.90;97.00;;;;;;5051416;28;20025;-44
2023/11/23 04:31:03;;;;;;;3.75;2.42;;;12.90;97.00;;;;;;5054269;28;20374;-45
2023/11/23 04:33:29;;;;;;;3.40;2.58;;;12.90;97.00;;;;;;5052122;28;20047;-46
2023/11/23 04:35:55;;;;;;;3.60;2.70;;;12.90;97.00;;;;;;5052778;28;20021;-43
2023/11/23 04:38:20;;;;;;;2.90;2.30;;;12.90;97.00;;;;;;5052688;28;20041;-46
2023/11/23 04:40:46;;;;;;;3.63;2.53;;;12.90;97.00;;;;;;5051476;28;20108;-45
2023/11/23 04:43:12;;;;;;;3.35;2.85;;;12.90;97.00;;;;;;5050820;28;20029;-45
2023/11/23 04:45:38;;;;;;;2.88;2.40;;;12.90;97.00;;;;;;5053454;28;20025;-44
2023/11/23 04:48:05;;;;;;;3.97;2.53;;;12.90;97.00;;;;;;5053386;28;20051;-45
2023/11/23 04:50:31;;;;;;;3.83;2.67;;;12.80;97.00;;;;;;5052098;28;20017;-41
2023/11/23 04:52:57;;;;;;;3.42;2.42;;;12.80;97.00;;;;;;5052874;28;20025;-41
2023/11/23 04:55:22;;;;;;;2.75;2.25;;;12.80;97.00;;;;;;5052928;28;20096;-40
2023/11/23 04:57:48;;;;;;;3.42;2.60;;;12.80;97.00;;;;;;5051300;28;20032;-45
2023/11/23 05:00:14;;;;;;;3.28;2.30;;;12.80;97.00;;;;;;5051563;28;20044;-45
2023/11/23 05:02:43;;;;;;;3.17;2.40;;;12.80;97.00;;;;;;5051267;28;20366;-44
2023/11/23 05:05:13;;;;;;;3.38;2.50;;;12.80;97.00;;;;;;5051565;28;20081;-46
2023/11/23 05:07:39;;;;;;;3.45;2.60;;;12.80;97.00;;;;;;5052367;28;20025;-42
2023/11/23 05:10:08;;;;;;;4.05;2.80;;;12.80;97.00;;;;;;5051016;28;20018;-45
2023/11/23 05:12:36;;;;;;;3.28;2.53;;;12.80;97.00;;;;;;5051983;28;20031;-46
2023/11/23 05:15:03;;;;;;;2.63;2.35;;;12.80;97.10;;;;;;5052762;28;20075;-45
2023/11/23 05:17:32;;;;;;;2.85;2.28;;;12.70;97.00;;;;;;5052966;28;20031;-44
2023/11/23 05:19:58;;;;;;;3.08;2.38;;;12.80;97.10;;;;;;5051926;28;20024;-45
2023/11/23 05:22:24;;;;;;;3.10;2.35;;;12.70;97.40;;;;;;5050937;28;20033;-44
2023/11/23 05:24:50;;;;;;;3.05;2.30;;;12.70;97.10;;;;;;5051016;28;20467;-42
2023/11/23 05:27:16;;;;;;;2.78;2.30;;;12.70;97.40;;;;;;5050943;28;20040;-44
2023/11/23 05:29:42;;;;;;;3.10;2.47;;;12.70;97.10;;;;;;5051714;28;20378;-45
2023/11/23 05:32:07;;;;;;;2.42;2.20;;;12.70;97.10;;;;;;5053318;28;20108;-42
2023/11/23 05:34:33;;;;;;;3.22;2.42;;;12.70;97.10;;;;;;5054999;28;20433;-44
2023/11/23 05:36:59;;;;;;;3.00;2.20;;;12.70;97.10;;;;;;5055267;28;20032;-45
2023/11/23 05:39:24;;;;;;;3.35;2.40;;;12.70;97.10;;;;;;5054787;28;20040;-45
2023/11/23 05:41:50;;;;;;;2.38;2.15;;;12.70;97.10;;;;;;5055535;28;20120;-45
2023/11/23 05:44:16;;;;;;;2.72;2.30;;;12.70;97.00;;;;;;5057147;28;20101;-45
2023/11/23 05:46:42;;;;;;;2.85;2.28;;;12.70;97.00;;;;;;5055533;28;20028;-44
2023/11/23 05:49:08;;;;;;;3.42;2.47;;;12.70;97.00;;;;;;5056215;28;20025;-45
2023/11/23 05:51:33;;;;;;;2.75;2.25;;;12.70;97.00;;;;;;5056170;28;20056;-42
2023/11/23 05:53:59;;;;;;;3.03;2.17;;;12.60;97.00;;;;;;5054447;28;20064;-45
2023/11/23 05:56:26;;;;;;;2.33;2.13;;;12.70;97.00;;;;;;5054547;28;20100;-42
2023/11/23 05:58:53;;;;;;;3.15;2.30;;;12.60;97.00;;;;;;5054913;28;20494;-44
2023/11/23 06:01:19;;;;;;;2.88;2.10;;;12.70;97.10;;;;;;5054513;28;20024;-45
2023/11/23 06:03:45;;;;;;;2.92;2.28;;;12.60;97.00;;;;;;5054547;28;20025;-43
2023/11/23 06:06:21;;;;;;;4.70;2.40;;;12.60;97.00;;;;;;5055194;28;20044;-45
2023/11/23 06:08:48;;;;;;;2.55;2.20;;;12.60;97.00;;;;;;5055325;28;20021;-45
2023/11/23 06:11:14;;;;;;;3.50;2.55;;;12.60;97.00;;;;;;5054831;28;20421;-44
2023/11/23 06:13:42;;;;;;;3.20;2.33;;;12.60;97.00;;;;;;5056509;28;20021;-41
2023/11/23 06:16:08;;;;;;;2.80;2.17;;;12.60;97.00;;;;;;5055825;28;20028;-41
2023/11/23 06:18:35;;;;;;;3.50;2.42;;;12.60;96.90;;;;;;5055704;28;20033;-45
2023/11/23 06:21:01;;;;;;;3.05;2.47;;;12.60;96.90;;;;;;5054523;28;20021;-46
2023/11/23 06:23:26;;;;;;;3.00;2.30;;;12.60;97.20;;;;;;5054123;28;20037;-45
2023/11/23 06:25:52;;;;;;;3.00;2.40;;;12.60;96.90;;;;;;5054058;28;20020;-43
2023/11/23 06:28:17;;;;;;;3.08;2.42;;;12.60;96.90;;;;;;5053957;28;20021;-43
2023/11/23 06:30:44;;;;;;;3.75;2.58;;;12.60;96.90;;;;;;5054054;28;20025;-45
2023/11/23 06:33:10;;;;;;;3.25;2.42;;;12.60;96.90;;;;;;5054061;28;20037;-43
2023/11/23 06:35:36;;;;;;;3.05;2.30;;;12.60;96.90;;;;;;5053788;28;20036;-45
2023/11/23 06:38:02;;;;;;;3.10;2.55;;;12.60;96.90;;;;;;5053763;28;20029;-46
2023/11/23 06:40:28;;;;;;;4.13;2.45;;;12.60;96.90;;;;;;5054208;28;20085;-46
2023/11/23 06:42:54;;;;;;;3.03;2.55;;;12.60;96.90;;;;;;5054476;28;20063;-44
2023/11/23 06:45:20;;;;;;;2.50;2.22;;;12.60;96.90;;;;;;5053674;28;20029;-41
2023/11/23 06:47:46;;;;;;;3.30;2.47;;;12.70;96.90;;;;;;5052197;28;20021;-46
2023/11/23 06:50:13;;;;;;;4.25;2.78;;;12.70;96.90;;;;;;5053710;28;20509;-46
2023/11/23 06:52:38;;;;;;;6.05;2.40;;;12.70;96.80;;;;;;5054748;28;20048;-46
2023/11/23 06:55:05;;;;;;;3.38;2.53;;;12.80;96.80;;;;;;5053610;28;20063;-45
2023/11/23 06:57:31;;;;;;;2.90;2.17;;;12.80;96.80;;;;;;5053379;28;20031;-43
2023/11/23 06:59:59;;;;;;;3.28;2.70;;;12.80;96.70;;;;;;5054374;28;20036;-43
2023/11/23 07:02:25;;;;;;;2.70;2.00;;;12.90;97.00;;;;;;5055700;28;20025;-43
2023/11/23 07:04:51;;;;;;;3.83;2.63;;;12.90;96.60;;;;;;5054215;28;20057;-45
2023/11/23 07:07:16;;;;;;;3.63;2.72;;;12.90;96.60;;;;;;5054883;28;20386;-45
2023/11/23 07:09:42;;;;;;;2.95;2.35;;;12.90;96.50;;;;;;5053710;28;20021;-40
2023/11/23 07:12:08;;;;;;;3.40;2.40;;;13.00;96.50;;;;;;5053775;28;20068;-45
2023/11/23 07:14:34;;;;;;;3.80;2.63;;;13.00;96.40;;;;;;5053615;28;20025;-43
2023/11/23 07:17:00;;;;;;;2.88;2.38;;;13.10;96.30;;;;;;5054343;28;20032;-45
2023/11/23 07:19:26;;;;;;;2.85;2.22;;;13.10;96.30;;;;;;5054901;28;20068;-45
2023/11/23 07:21:52;;;;;;;2.78;2.15;;;13.10;96.30;;;;;;5054422;28;20047;-45
2023/11/23 07:24:18;;;;;;;2.35;1.95;;;13.20;96.30;;;;;;5023387;28;20415;-45
2023/11/23 07:26:44;;;;;;;2.38;2.10;;;13.20;96.30;;;;;;5034136;28;20017;-45
2023/11/23 07:29:11;;;;;;;3.70;2.65;;;13.30;96.30;;;;;;5033841;28;20013;-46
2023/11/23 07:31:37;;;;;;;3.65;2.83;;;13.30;95.60;;;;;;5032942;28;20049;-46
2023/11/23 07:34:03;;;;;;;4.07;3.00;;;13.40;94.30;;;;;;5032856;28;20033;-46
2023/11/23 07:36:30;;;;;;;4.88;2.63;;;13.30;94.00;;;;;;5032792;28;20022;-46
2023/11/23 07:38:56;;;;;;;4.10;2.58;;;13.30;94.10;;;;;;5032485;28;20450;-46
2023/11/23 07:41:21;;;;;;;2.95;2.30;;;13.30;94.10;;;;;;5032812;28;20096;-46
2023/11/23 07:43:47;;;;;;;3.70;2.70;;;13.30;94.20;;;;;;5032753;28;20048;-46
2023/11/23 07:46:13;;;;;;;3.17;2.55;;;13.30;94.30;;;;;;5032494;28;20518;-45
2023/11/23 07:48:38;;;;;;;2.85;2.20;;;13.40;94.30;;;;;;5032798;28;20029;-44
2023/11/23 07:51:04;;;;;;;3.05;2.35;;;13.50;94.40;;;;;;5032644;28;20394;-46
2023/11/23 07:53:30;;;;;;;2.40;1.98;;;13.50;94.40;;;;;;5032199;28;20028;-46
2023/11/23 07:55:59;;;;;;;3.20;2.15;;;13.60;94.40;;;;;;5032040;28;20029;-46
2023/11/23 07:58:24;;;;;;;2.50;2.13;;;13.60;94.40;;;;;;5032278;28;20464;-45
2023/11/23 08:00:50;;;;;;;2.70;1.80;;;13.70;94.40;;;;;;5033095;28;20114;-46
2023/11/23 08:03:16;;;;;;;2.78;1.88;;;13.80;94.50;;;;;;5033109;28;20053;-45
2023/11/23 08:05:42;;;;;;;2.30;1.92;;;13.80;94.40;;;;;;5032453;28;20018;-46
2023/11/23 08:08:07;;;;;;;2.22;2.03;;;13.90;94.50;;;;;;5032114;28;20104;-45
2023/11/23 08:10:33;;;;;;;2.72;2.00;;;13.90;94.80;;;;;;5032244;28;20032;-46
2023/11/23 08:12:59;;;;;;;2.60;1.98;;;14.00;94.40;;;;;;5032219;28;20051;-46
2023/11/23 08:15:25;;;;;;;3.15;2.03;;;14.10;94.40;;;;;;5032031;28;20069;-46
2023/11/23 08:17:50;;;;;;;3.05;1.73;;;14.10;94.40;;;;;;5032041;28;20061;-46
2023/11/23 08:20:16;;;;;;;3.08;1.70;;;14.20;94.40;;;;;;5032046;28;20030;-46
2023/11/23 08:22:42;;;;;;;2.40;2.05;;;14.20;94.30;;;;;;5032007;28;20049;-45
2023/11/23 08:25:08;;;;;;;1.90;1.63;;;14.30;94.30;;;;;;5031964;28;20075;-45
2023/11/23 08:27:34;;;;;;;2.28;1.70;;;14.30;94.20;;;;;;5031871;28;20029;-45
2023/11/23 08:30:02;;;;;;;2.10;1.80;;;14.40;94.20;;;;;;5031703;28;20025;-46
2023/11/23 08:32:28;;;;;;;1.90;1.60;;;14.40;94.10;;;;;;5031914;28;20492;-45
2023/11/23 08:34:54;;;;;;;2.33;1.58;;;14.50;94.10;;;;;;5034305;28;20028;-46
2023/11/23 08:37:20;;;;;;;2.60;1.70;;;14.50;94.10;;;;;;5031873;28;20422;-46
2023/11/23 08:39:46;;;;;;;2.13;1.50;;;14.50;94.10;;;;;;5031584;28;20499;-46
2023/11/23 08:42:12;;;;;;;2.13;1.80;;;14.60;94.00;;;;;;5031865;28;20026;-46
2023/11/23 08:44:38;;;;;;;1.83;1.33;;;14.60;94.00;;;;;;5034467;28;20025;-44
2023/11/23 08:47:04;;;;;;;2.45;1.70;;;14.60;94.00;;;;;;5031711;28;20502;-46
2023/11/23 08:49:31;;;;;;;2.03;1.35;;;14.60;93.90;;;;;;5031558;28;20029;-44
2023/11/23 08:51:57;;;;;;;2.85;1.80;;;14.70;93.90;;;;;;5031601;28;20487;-44
2023/11/23 08:54:23;;;;;;;4.43;1.63;;;14.70;93.80;;;;;;5031586;28;20037;-46
2023/11/23 08:56:48;;;;;;;2.25;1.60;;;14.80;93.80;;;;;;5031386;28;20036;-46
2023/11/23 08:59:14;;;;;;;2.72;1.40;;;14.80;93.80;;;;;;5031352;28;20021;-45
2023/11/23 09:01:40;;;;;;;1.98;1.48;;;14.90;93.80;;;;;;5031340;28;20526;-46
2023/11/23 09:04:05;;;;;;;2.10;1.35;;;14.90;93.70;;;;;;5031437;28;20018;-45
2023/11/23 09:06:31;;;;;;;2.20;1.52;;;14.90;93.60;;;;;;5031537;28;20353;-45
2023/11/23 09:09:00;;;;;;;3.05;1.55;;;14.90;93.60;;;;;;5031231;28;20037;-45
2023/11/23 09:11:26;;;;;;;1.75;1.30;;;15.00;93.60;;;;;;5031606;28;20375;-45
2023/11/23 09:13:54;;;;;;;1.67;1.45;;;15.00;93.60;;;;;;5031191;28;20025;-45
2023/11/23 09:16:20;;;;;;;2.33;1.40;;;15.00;93.50;;;;;;5031145;28;20052;-46
2023/11/23 09:18:46;;;;;;;1.70;1.38;;;15.00;93.50;;;;;;5031118;28;20048;-46
2023/11/23 09:21:12;;;;;;;1.55;1.20;;;15.10;93.50;;;;;;5031255;28;20578;-46
2023/11/23 09:23:37;;;;;;;2.30;1.50;;;15.10;93.50;;;;;;5031200;28;20034;-45
2023/11/23 09:26:04;;;;;;;1.88;1.38;;;15.10;93.50;;;;;;5030094;28;20033;-43
2023/11/23 09:28:30;;;;;;;2.15;1.40;;;15.10;93.50;;;;;;5032066;28;20022;-46
2023/11/23 09:30:56;;;;;;;2.05;1.55;;;15.10;93.40;;;;;;5031150;28;20021;-46
2023/11/23 09:33:22;;;;;;;2.17;1.35;;;15.10;93.40;;;;;;5031647;28;20029;-46
2023/11/23 09:35:48;;;;;;;1.85;1.23;;;15.20;93.50;;;;;;5032673;28;20484;-45
2023/11/23 09:38:14;;;;;;;1.85;1.40;;;15.20;93.50;;;;;;5030535;28;20048;-45
2023/11/23 09:40:40;;;;;;;1.58;1.35;;;15.30;93.50;;;;;;5048405;28;20037;-46
2023/11/23 09:43:09;;;;;;;2.60;1.40;;;15.30;93.50;;;;;;5031753;28;20053;-45
2023/11/23 09:45:35;;;;;;;1.58;1.20;;;15.30;93.50;;;;;;5030978;28;20075;-46
2023/11/23 09:48:02;;;;;;;1.95;1.30;;;15.30;93.50;;;;;;5031868;28;20037;-46
2023/11/23 09:50:29;;;;;;;1.83;1.30;;;15.40;93.50;;;;;;5032655;28;20076;-45
2023/11/23 09:52:56;;;;;;;1.52;1.30;;;15.50;93.40;;;;;;5032969;28;20396;-44
2023/11/23 09:55:23;;;;;;;2.05;1.20;;;15.50;93.40;;;;;;5046766;28;20446;-45
2023/11/23 09:57:48;;;;;;;1.85;1.40;;;15.60;93.50;;;;;;5031783;28;20052;-46
2023/11/23 10:00:14;;;;;;;1.45;1.23;;;15.60;93.40;;;;;;5030951;28;20078;-46
2023/11/23 10:02:45;;;;;;;1.70;1.10;;;15.70;93.40;;;;;;5031807;28;20022;-45
2023/11/23 10:05:15;;;;;;;1.75;1.05;;;15.70;93.30;;;;;;5031318;28;20028;-46
2023/11/23 10:07:42;;;;;;;2.25;1.33;;;15.80;93.20;;;;;;5031948;28;20096;-45
2023/11/23 10:10:10;;;;;;;1.60;1.30;;;15.80;93.10;;;;;;5032181;28;20028;-45
2023/11/23 10:12:36;;;;;;;1.80;1.27;;;15.90;93.10;;;;;;5031769;28;20053;-46
2023/11/23 10:15:03;;;;;;;1.50;1.13;;;16.00;93.00;;;;;;5030727;28;20030;-46
2023/11/23 10:17:29;;;;;;;1.85;1.13;;;16.00;92.90;;;;;;5031788;28;20084;-44
2023/11/23 10:20:15;;;;;;;1.80;1.08;;;16.00;92.90;;;;;;5034107;28;20022;-46
2023/11/23 10:22:44;;;;;;;2.35;1.17;;;16.10;92.80;;;;;;5034916;28;20471;-46
2023/11/23 10:25:20;;;;;;;2.35;1.27;;;16.00;92.70;;;;;;5035799;28;20096;-46
2023/11/23 10:27:46;;;;;;;1.77;1.10;;;16.00;92.70;;;;;;5035012;28;20025;-46
2023/11/23 10:30:12;;;;;;;1.70;1.30;;;16.10;92.70;;;;;;5034726;28;20458;-45
2023/11/23 10:32:40;;;;;;;1.27;1.10;;;16.10;92.60;;;;;;5034840;28;20124;-46
2023/11/23 10:35:09;;;;;;;1.23;1.10;;;16.10;92.60;;;;;;5035306;28;20033;-46
2023/11/23 10:37:38;;;;;;;1.63;1.10;;;16.20;92.60;;;;;;5034169;28;20235;-45
2023/11/23 10:40:06;;;;;;;1.60;1.30;;;16.20;92.50;;;;;;5035600;28;20033;-43
2023/11/23 10:42:33;;;;;;;2.40;1.27;;;16.20;92.50;;;;;;5035365;28;20466;-46
2023/11/23 10:45:00;;;;;;;1.50;1.10;;;16.20;92.50;;;;;;5034789;28;20025;-45
2023/11/23 10:47:28;;;;;;;1.95;1.30;;;16.20;92.50;;;;;;5035258;28;20486;-44
2023/11/23 10:49:57;;;;;;;1.40;0.98;;;16.20;92.40;;;;;;5034818;28;20025;-44
2023/11/23 10:52:28;;;;;;;2.28;1.10;;;16.20;92.70;;;;;;5034201;28;20021;-45
2023/11/23 10:54:54;;;;;;;1.90;1.10;;;16.30;92.40;;;;;;5035822;28;20033;-45
2023/11/23 10:57:21;;;;;;;1.98;0.73;;;16.30;92.40;;;;;;5034877;28;20031;-46
2023/11/23 10:59:48;;;;;;;2.17;1.02;;;16.30;92.70;;;;;;5035362;28;20025;-46
2023/11/23 11:02:14;;;;;;;2.40;1.30;;;16.30;92.40;;;;;;5033482;28;20060;-46
2023/11/23 11:04:41;;;;;;;3.10;1.00;;;16.30;92.30;;;;;;5034735;28;20026;-46
2023/11/23 11:07:11;;;;;;;2.22;1.10;;;16.30;92.30;;;;;;5034837;28;20025;-46
2023/11/23 11:09:36;;;;;;;1.42;1.00;;;16.30;92.30;;;;;;5033409;28;20475;-46
2023/11/23 11:12:03;;;;;;;1.42;0.98;;;16.30;92.30;;;;;;5033608;28;20049;-46
2023/11/23 11:14:36;;;;;;;1.65;0.80;;;16.20;92.30;;;;;;5033659;28;20028;-46
2023/11/23 11:17:03;;;;;;;1.42;1.00;;;16.30;92.30;;;;;;5034773;28;20029;-46
2023/11/23 11:19:28;;;;;;;1.25;0.93;;;16.20;92.30;;;;;;5033134;28;20056;-46
2023/11/23 11:22:00;;;;;;;1.08;0.80;;;16.30;92.30;;;;;;5033526;28;20034;-46
2023/11/23 11:24:25;;;;;;;1.73;1.00;;;16.30;92.70;;;;;;5032991;28;20512;-44
2023/11/23 11:27:01;;;;;;;1.52;0.93;;;16.30;92.30;;;;;;5033788;28;20036;-44
2023/11/23 11:29:29;;;;;;;1.13;0.80;;;16.30;92.30;;;;;;5033285;28;20021;-43
2023/11/23 11:31:57;;;;;;;1.30;0.80;;;16.30;92.30;;;;;;5034087;28;20022;-41
2023/11/23 11:34:26;;;;;;;1.75;0.80;;;16.30;92.70;;;;;;5033901;28;20114;-46
2023/11/23 11:36:59;;;;;;;1.40;0.90;;;16.30;92.30;;;;;;5032925;28;20025;-46
2023/11/23 11:39:32;;;;;;;3.38;0.73;;;16.30;92.30;;;;;;5032594;28;20502;-45
2023/11/23 11:41:59;;;;;;;1.10;0.88;;;16.30;92.30;;;;;;5033781;28;20052;-45
2023/11/23 11:44:32;;;;;;;1.45;0.73;;;16.30;92.30;;;;;;5033460;28;20045;-44
2023/11/23 11:46:58;;;;;;;1.27;0.80;;;16.30;92.40;;;;;;5033483;28;20028;-45
2023/11/23 11:49:25;;;;;;;1.17;0.88;;;16.30;92.40;;;;;;5033573;28;20100;-45
2023/11/23 11:51:50;;;;;;;1.85;0.80;;;16.30;92.30;;;;;;5033101;28;20478;-45
2023/11/23 11:54:20;;;;;;;1.27;0.98;;;16.30;92.30;;;;;;5033769;28;20029;-46
2023/11/23 11:56:49;;;;;;;1.10;0.77;;;16.30;92.30;;;;;;5033403;28;20029;-45
2023/11/23 11:59:22;;;;;;;1.17;0.90;;;16.20;92.30;;;;;;5032300;28;20482;-46
2023/11/23 12:01:48;;;;;;;1.02;0.80;;;16.30;92.30;;;;;;5034616;28;20117;-46
2023/11/23 12:04:18;;;;;;;0.98;0.70;;;16.30;92.40;;;;;;5032498;28;20541;-46
2023/11/23 12:06:47;;;;;;;1.02;0.73;;;16.20;92.30;;;;;;5033560;28;20338;-46
2023/11/23 12:09:19;;;;;;;0.98;0.70;;;16.30;92.40;;;;;;5033447;28;20021;-46
2023/11/23 12:11:48;;;;;;;1.60;0.88;;;16.30;92.40;;;;;;5033942;28;20045;-45
2023/11/23 12:14:15;;;;;;;0.90;0.70;;;16.20;92.70;;;;;;5032258;28;20431;-46
2023/11/23 12:16:41;;;;;;;0.90;0.60;;;16.30;92.40;;;;;;5033074;28;20021;-46
2023/11/23 12:19:24;;;;;;;1.20;0.60;;;16.20;92.30;;;;;;5033193;28;20185;-46
2023/11/23 12:21:58;;;;;;;1.13;0.77;;;16.20;92.40;;;;;;5033123;28;20113;-46
2023/11/23 12:24:28;;;;;;;1.20;0.70;;;16.20;92.40;;;;;;5032672;28;20017;-46
2023/11/23 12:26:54;;;;;;;1.10;0.80;;;16.20;92.40;;;;;;5033527;28;20056;-45
2023/11/23 12:29:26;;;;;;;0.93;0.63;;;16.20;92.40;;;;;;5032598;28;20032;-45
2023/11/23 12:31:52;;;;;;;1.05;0.70;;;16.20;92.40;;;;;;5031870;28;20028;-44
2023/11/23 12:34:23;;;;;;;1.05;0.80;;;16.20;92.40;;;;;;5031783;28;20471;-45
2023/11/23 12:36:49;;;;;;;1.30;0.70;;;16.20;92.40;;;;;;5031714;28;20060;-44
2023/11/23 12:39:15;;;;;;;1.27;0.82;;;16.20;92.40;;;;;;5032351;28;20061;-45
2023/11/23 12:41:41;;;;;;;0.80;0.60;;;16.20;92.40;;;;;;5031227;28;20582;-46
2023/11/23 12:44:09;;;;;;;0.98;0.80;;;16.20;92.80;;;;;;5032775;28;20108;-46